ID Time Temp Humidity Light PM2.5 PM10 Voltage Extra Firmware Position Fcnt TTN version Gateways Distance RSSI LSNR Radiosettings
2026-05-08 18:30:56 16.9375°C 59.1875% 3.33V v4 52.0948 / 5.10269 21412 ttn.v3 3.434km -105 -2.5 867.9MHz, SF9BW125, 4/5CR
2026-05-08 18:15:00 16.9375°C 60% 3.33V v4 52.0948 / 5.10269 21411 ttn.v3 3.434km -91 -13.75 868.5MHz, SF9BW125, 4/5CR
2026-05-08 17:59:04 17°C 59.6875% 3.33V v4 52.0948 / 5.10269 21410 ttn.v3 3.434km -105 -5 867.7MHz, SF9BW125, 4/5CR
2026-05-08 16:39:25 17.625°C 57.6875% 3.33V v4 52.0948 / 5.10269 21405 ttn.v3 3.434km -96 -12.25 868.5MHz, SF9BW125, 4/5CR
2026-05-08 16:23:29 17.75°C 60% 3.33V v4 52.0948 / 5.10269 21404 ttn.v3 3.434km -110 -4.75 867.1MHz, SF9BW125, 4/5CR
2026-05-08 15:36:36 17.875°C 62% 3.33V v4 52.0948 / 5.10269 21401 ttn.v3 3.434km -108 -6 868.1MHz, SF12BW125, 4/5CR
- -127 -16.5 868.1MHz, SF12BW125, 4/5CR
2026-05-08 15:19:49 17.875°C 63.0625% 3.33V v4 52.0948 / 5.10275 21400 ttn.v3 3.43km -105 -7.25 867.7MHz, SF9BW125, 4/5CR
2026-05-08 15:03:53 17.875°C 62.3125% 3.33V v4 52.0948 / 5.10275 21399 ttn.v3 3.43km -96 -13 868.5MHz, SF9BW125, 4/5CR
2026-05-08 14:00:09 18.0625°C 62.625% 3.33V v4 52.0948 / 5.10275 21395 ttn.v3 3.43km -99 -10.5 868.1MHz, SF9BW125, 4/5CR
2026-05-08 13:44:13 18°C 63.125% 3.33V v4 52.0948 / 5.10275 21394 ttn.v3 3.43km -110 -6.75 867.1MHz, SF9BW125, 4/5CR
2026-05-08 13:12:21 17.8125°C 64.5625% 3.33V v4 52.0948 / 5.10275 21392 ttn.v3 3.43km -110 -1.5 867.9MHz, SF9BW125, 4/5CR
2026-05-08 12:56:25 17.5°C 65.75% 3.33V v4 52.0948 / 5.10275 21391 ttn.v3 - -118 -11 868.3MHz, SF9BW125, 4/5CR
2026-05-08 12:24:33 18.625°C 64.75% 3.33V v4 52.0948 / 5.10275 21389 ttn.v3 3.43km -107 -8 868.1MHz, SF9BW125, 4/5CR
2026-05-08 10:33:02 15.625°C 76.3125% 3.33V v4 52.0948 / 5.10275 21382 ttn.v3 3.43km -107 -6.75 867.9MHz, SF9BW125, 4/5CR
2026-05-08 10:01:12 14.6875°C 79.25% 3.33V v4 52.0948 / 5.10275 21380 ttn.v3 3.43km -105 -9 867.7MHz, SF9BW125, 4/5CR
2026-05-08 08:57:34 12.8125°C 81.9375% 3.33V v4 52.0948 / 5.10275 21376 ttn.v3 3.43km -107 -5 867.3MHz, SF9BW125, 4/5CR
2026-05-08 08:25:46 12.25°C 82.625% 3.33V v4 52.0948 / 5.10275 21374 ttn.v3 3.43km -107 -5.5 867.1MHz, SF9BW125, 4/5CR
2026-05-08 07:53:58 11.8125°C 83.1875% 3.33V v4 52.0948 / 5.10275 21372 ttn.v3 3.43km -105 -4.5 867.9MHz, SF9BW125, 4/5CR
2026-05-08 07:38:04 11.625°C 83.0625% 3.34V v4 52.0948 / 5.10275 21371 ttn.v3 3.43km -103 -9.25 868.1MHz, SF9BW125, 4/5CR
2026-05-08 07:22:10 11.4375°C 83.0625% 3.33V v4 52.0948 / 5.10275 21370 ttn.v3 3.43km -104 -5.75 867.7MHz, SF9BW125, 4/5CR
2026-05-08 05:46:47 11.5°C 81.5% 3.33V v4 52.0948 / 5.10275 21364 ttn.v3 3.43km -108 -5.25 867.1MHz, SF9BW125, 4/5CR
- -128 -14.25 867.1MHz, SF9BW125, 4/5CR
2026-05-08 05:14:59 11.625°C 80.0625% 3.34V v4 52.0948 / 5.10275 21362 ttn.v3 3.43km -107 -0.5 867.9MHz, SF9BW125, 4/5CR
2026-05-08 04:43:11 11.75°C 79.8125% 3.33V v4 52.0948 / 5.10275 21360 ttn.v3 3.43km -104 -4.25 867.7MHz, SF9BW125, 4/5CR
2026-05-08 04:27:17 11.8125°C 79.1875% 3.33V v4 52.0948 / 5.10275 21359 ttn.v3 3.43km -93 -5.75 868.1MHz, SF9BW125, 4/5CR
2026-05-08 03:39:35 12.0625°C 78.0625% 3.33V v4 52.0948 / 5.10275 21356 ttn.v3 3.43km -105 -5.75 867.3MHz, SF9BW125, 4/5CR
2026-05-08 03:07:46 12.25°C 76.875% 3.34V v4 52.0948 / 5.10275 21354 ttn.v3 3.43km -105 -3.5 867.1MHz, SF9BW125, 4/5CR
2026-05-08 02:51:52 12.3125°C 76.625% 3.33V v4 52.0948 / 5.10275 21353 ttn.v3 3.43km -107 -6.5 868.1MHz, SF9BW125, 4/5CR
2026-05-08 02:35:58 12.4375°C 76% 3.33V v4 52.0948 / 5.10275 21352 ttn.v3 3.43km -109 -0.25 867.9MHz, SF9BW125, 4/5CR
2026-05-08 02:20:04 12.5°C 75.5% 3.33V v4 52.0948 / 5.10275 21351 ttn.v3 3.43km -95 -14.25 868.5MHz, SF9BW125, 4/5CR
2026-05-08 02:04:09 12.5625°C 75.3125% 3.34V v4 52.0948 / 5.10275 21350 ttn.v3 3.43km -105 -4.25 867.7MHz, SF9BW125, 4/5CR
2026-05-08 01:16:27 12.625°C 74.4375% 3.33V v4 52.0948 / 5.10275 21347 ttn.v3 3.43km -108 -5.75 868.1MHz, SF9BW125, 4/5CR
2026-05-07 23:56:55 13.125°C 71.8125% 3.33V v4 52.0948 / 5.10275 21342 ttn.v3 3.43km -107 0.25 867.9MHz, SF9BW125, 4/5CR
2026-05-07 23:41:00 13.3125°C 70.1875% 3.33V v4 52.0948 / 5.10275 21341 ttn.v3 3.43km -107 -5 868.1MHz, SF9BW125, 4/5CR
2026-05-07 21:49:37 14.25°C 65.1875% 3.34V v4 52.0948 / 5.10275 21334 ttn.v3 3.43km -105 -3.75 867.1MHz, SF9BW125, 4/5CR
2026-05-07 21:17:48 14.5°C 63.6875% 3.33V v4 52.0948 / 5.10275 21332 ttn.v3 3.43km -107 -0.25 867.9MHz, SF9BW125, 4/5CR
2026-05-07 18:54:32 15.75°C 59% 3.33V v4 52.0948 / 5.10275 21323 ttn.v3 3.43km -101 -7.75 868.1MHz, SF9BW125, 4/5CR
2026-05-07 18:38:36 16.125°C 58.1875% 3.33V v4 52.0948 / 5.10275 21322 ttn.v3 3.43km -110 -0.5 867.9MHz, SF9BW125, 4/5CR
2026-05-07 18:06:45 17.5°C 56.0625% 3.33V v4 52.0948 / 5.10275 21320 ttn.v3 3.43km -105 -6.75 867.7MHz, SF9BW125, 4/5CR
- -126 -12.5 867.7MHz, SF9BW125, 4/5CR
2026-05-07 17:18:57 18.25°C 57.4375% 3.33V v4 52.0948 / 5.10275 21317 ttn.v3 3.43km -102 -12.25 868.1MHz, SF9BW125, 4/5CR
2026-05-07 17:03:01 17.6875°C 56.5% 3.33V v4 52.0948 / 5.10275 21316 ttn.v3 3.43km -109 -6.5 867.3MHz, SF9BW125, 4/5CR
2026-05-07 16:31:09 17.25°C 55.4375% 3.33V v4 52.0948 / 5.10275 21314 ttn.v3 3.43km -104 -6.25 867.1MHz, SF9BW125, 4/5CR
2026-05-07 15:27:26 16.875°C 59.4375% 3.33V v4 52.0948 / 5.10275 21310 ttn.v3 3.43km -104 -9.5 867.7MHz, SF9BW125, 4/5CR
2026-05-07 15:11:31 16.5°C 59.875% 3.33V v4 52.0948 / 5.10275 21309 ttn.v3 3.43km -95 -13.5 868.5MHz, SF9BW125, 4/5CR
2026-05-07 14:08:41 16.75°C 58.1875% 3.33V v4 52.0948 / 5.10275 21305 ttn.v3 3.43km -105 -5.25 868.1MHz, SF12BW125, 4/5CR
2026-05-07 13:20:04 16.9375°C 60.625% 3.33V v4 52.0948 / 5.10278 21302 ttn.v3 3.428km -99 -1.25 867.9MHz, SF9BW125, 4/5CR
2026-05-07 12:32:18 15.6875°C 64.1875% 3.33V v4 52.0948 / 5.10278 21299 ttn.v3 3.428km -104 -9 868.1MHz, SF9BW125, 4/5CR
2026-05-07 10:56:46 14.5625°C 70.875% 3.33V v4 52.0948 / 5.10278 21293 ttn.v3 3.428km -107 -8 868.1MHz, SF9BW125, 4/5CR
2026-05-07 10:40:52 13.875°C 72.9375% 3.33V v4 52.0948 / 5.10278 21292 ttn.v3 3.428km -107 0.25 867.9MHz, SF9BW125, 4/5CR
2026-05-07 08:49:34 10.0625°C 85.75% 3.34V v4 52.0948 / 5.10278 21285 ttn.v3 3.428km -92 -13.25 868.5MHz, SF9BW125, 4/5CR
2026-05-07 08:01:53 9.5°C 88.6875% 3.33V v4 52.0948 / 5.10278 21282 ttn.v3 3.428km -104 -2 867.9MHz, SF9BW125, 4/5CR
2026-05-07 07:46:00 9.3125°C 88.625% 3.33V v4 52.0948 / 5.10278 21281 ttn.v3 3.428km -99 -10 868.1MHz, SF9BW125, 4/5CR
2026-05-07 05:54:48 8.3125°C 85.5625% 3.34V v4 52.0948 / 5.10278 21274 ttn.v3 3.428km -109 -7.25 867.1MHz, SF9BW125, 4/5CR
2026-05-07 05:38:55 8.3125°C 84.5625% 3.34V v4 52.0948 / 5.10278 21273 ttn.v3 3.428km -95 -12.75 868.5MHz, SF9BW125, 4/5CR
2026-05-07 05:23:01 8.3125°C 84.0625% 3.34V v4 52.0948 / 5.10278 21272 ttn.v3 3.428km -107 -1.25 867.9MHz, SF9BW125, 4/5CR
2026-05-07 04:51:15 8.4375°C 82.4375% 3.34V v4 52.0948 / 5.10278 21270 ttn.v3 3.428km -101 -10 867.7MHz, SF9BW125, 4/5CR
2026-05-07 04:35:22 8.5625°C 82.1875% 3.34V v4 52.0948 / 5.10278 21269 ttn.v3 3.428km -104 -12.25 868.1MHz, SF9BW125, 4/5CR
2026-05-07 03:15:56 9.6875°C 78.125% 3.34V v4 52.0948 / 5.10278 21264 ttn.v3 3.428km -105 -6.5 867.1MHz, SF9BW125, 4/5CR
2026-05-07 03:00:02 9.875°C 77.75% 3.33V v4 52.0948 / 5.10278 21263 ttn.v3 3.428km -101 -7.5 868.1MHz, SF9BW125, 4/5CR
2026-05-07 02:44:08 10.0625°C 78.0625% 3.34V v4 52.0948 / 5.10278 21262 ttn.v3 3.428km -109 -0.25 867.9MHz, SF9BW125, 4/5CR
2026-05-07 01:24:40 11.375°C 74.5625% 3.34V v4 52.0948 / 5.10278 21257 ttn.v3 3.428km -108 -2.5 868.1MHz, SF9BW125, 4/5CR
2026-05-07 01:08:46 11.625°C 73.4375% 3.34V v4 52.0948 / 5.10278 21256 ttn.v3 3.428km -107 -8.25 867.3MHz, SF9BW125, 4/5CR
2026-05-07 00:36:58 11.9375°C 72.25% 3.33V v4 52.0948 / 5.10278 21254 ttn.v3 3.428km -108 -8.5 867.1MHz, SF9BW125, 4/5CR
- -125 -12.5 867.1MHz, SF9BW125, 4/5CR
2026-05-07 00:05:10 12.125°C 71.3125% 3.34V v4 52.0948 / 5.10278 21252 ttn.v3 3.428km -107 -0.75 867.9MHz, SF9BW125, 4/5CR
2026-05-06 23:49:15 12.25°C 69.8125% 3.33V v4 52.0948 / 5.10278 21251 ttn.v3 3.428km -103 -9 868.1MHz, SF9BW125, 4/5CR
2026-05-06 23:33:21 12.3125°C 69.625% 3.33V v4 52.0948 / 5.10278 21250 ttn.v3 3.428km -104 -10.25 867.7MHz, SF9BW125, 4/5CR
2026-05-06 23:17:27 12.4375°C 69.6875% 3.33V v4 52.0948 / 5.10278 21249 ttn.v3 3.428km -95 -13.75 868.5MHz, SF9BW125, 4/5CR
2026-05-06 21:57:55 13.25°C 69.8125% 3.33V v4 52.0948 / 5.10278 21244 ttn.v3 3.428km -107 -6.5 867.1MHz, SF9BW125, 4/5CR
2026-05-06 21:26:06 13.5°C 65.875% 3.34V v4 52.0948 / 5.10278 21242 ttn.v3 3.428km -107 -1 867.9MHz, SF9BW125, 4/5CR
2026-05-06 20:54:17 13.75°C 62.1875% 3.33V v4 52.0948 / 5.10278 21240 ttn.v3 3.428km -107 -6 867.7MHz, SF9BW125, 4/5CR
2026-05-06 20:38:22 13.9375°C 61.5% 3.33V v4 52.0948 / 5.10278 21239 ttn.v3 3.428km -105 -3.25 868.1MHz, SF9BW125, 4/5CR
2026-05-06 18:46:57 15.75°C 56.9375% 3.33V v4 52.0948 / 5.10278 21232 ttn.v3 3.428km -107 -1 867.9MHz, SF9BW125, 4/5CR
2026-05-06 18:15:06 16.375°C 56.875% 3.33V v4 52.0948 / 5.10278 21230 ttn.v3 3.428km -107 -6.25 867.7MHz, SF9BW125, 4/5CR
2026-05-06 16:55:29 15.6875°C 56.75% 3.33V v4 52.0948 / 5.10278 21225 ttn.v3 3.428km -95 -14 868.5MHz, SF9BW125, 4/5CR
2026-05-06 16:07:43 16°C 55.8125% 3.33V v4 52.0948 / 5.10278 21222 ttn.v3 3.428km -96 -4 867.9MHz, SF9BW125, 4/5CR
2026-05-06 15:51:47 16.125°C 54.3125% 3.34V v4 52.0948 / 5.10278 21221 ttn.v3 3.428km -105 -5.5 868.1MHz, SF9BW125, 4/5CR
2026-05-06 15:19:56 17.0625°C 55.0625% 3.33V v4 52.0948 / 5.10278 21219 ttn.v3 3.428km -95 -13.25 868.5MHz, SF9BW125, 4/5CR
2026-05-06 13:28:25 17°C 60.125% 3.33V v4 52.0948 / 5.10278 21212 ttn.v3 3.428km -107 -3 867.9MHz, SF9BW125, 4/5CR
2026-05-06 12:56:34 16.1875°C 59.75% 3.33V v4 52.0948 / 5.10278 21210 ttn.v3 3.428km -101 -9.75 867.7MHz, SF9BW125, 4/5CR
- -125 -12 867.7MHz, SF9BW125, 4/5CR
2026-05-06 12:41:42 15.375°C 65.75% 3.33V v4 52.0948 / 5.10278 21209 ttn.v3 3.428km -107 -4.75 868.1MHz, SF12BW125, 4/5CR
2026-05-06 11:52:56 17.0625°C 60.5% 3.34V v4 52.0948 / 5.10278 21206 ttn.v3 3.428km -104 -8 867.3MHz, SF9BW125, 4/5CR
2026-05-06 11:21:06 15.6875°C 67.125% 3.33V v4 52.0948 / 5.10278 21204 ttn.v3 3.428km -107 -8 867.1MHz, SF9BW125, 4/5CR
2026-05-06 11:05:10 15.5625°C 67.75% 3.33V v4 52.0948 / 5.10278 21203 ttn.v3 3.428km -105 -7 868.1MHz, SF9BW125, 4/5CR
2026-05-06 10:49:15 14.9375°C 69.1875% 3.33V v4 52.0948 / 5.10278 21202 ttn.v3 3.428km -104 -3 867.9MHz, SF9BW125, 4/5CR
- -120 -11.8 867.9MHz, SF9BW125, 4/5CR
2026-05-06 10:33:21 14.625°C 69% 3.33V v4 52.0948 / 5.10278 21201 ttn.v3 3.428km -95 -13.25 868.5MHz, SF9BW125, 4/5CR
2026-05-06 08:57:52 13.375°C 83.875% 3.33V v4 52.0948 / 5.10278 21195 ttn.v3 - -118 -9.5 868.5MHz, SF9BW125, 4/5CR
2026-05-06 08:41:58 12.875°C 84.5% 3.33V v4 52.0948 / 5.10278 21194 ttn.v3 3.428km -109 -7 867.1MHz, SF9BW125, 4/5CR
2026-05-06 08:10:09 12.4375°C 86.0625% 3.34V v4 52.0948 / 5.10278 21192 ttn.v3 3.428km -107 1 867.9MHz, SF9BW125, 4/5CR
2026-05-06 07:54:15 12.25°C 86.25% 3.33V v4 52.0948 / 5.10278 21191 ttn.v3 3.428km -97 -10.5 868.1MHz, SF9BW125, 4/5CR
2026-05-06 07:38:21 11.9375°C 86.25% 3.34V v4 52.0948 / 5.10278 21190 ttn.v3 3.428km -107 -6.75 867.7MHz, SF9BW125, 4/5CR
2026-05-06 05:47:03 11.25°C 83.5625% 3.34V v4 52.0948 / 5.10278 21183 ttn.v3 3.428km -96 -13 868.5MHz, SF9BW125, 4/5CR
2026-05-06 05:31:10 11.3125°C 82.5625% 3.34V v4 52.0948 / 5.10278 21182 ttn.v3 3.428km -109 0.75 867.9MHz, SF9BW125, 4/5CR
2026-05-06 04:59:22 11.375°C 83.1875% 3.33V v4 52.0948 / 5.10278 21180 ttn.v3 3.428km -109 -4 867.7MHz, SF9BW125, 4/5CR
2026-05-06 04:43:28 11.375°C 82.1875% 3.34V v4 52.0948 / 5.10278 21179 ttn.v3 3.428km -109 -3.75 868.1MHz, SF9BW125, 4/5CR
2026-05-06 03:55:46 11.5625°C 80.4375% 3.33V v4 52.0948 / 5.10278 21176 ttn.v3 3.428km -110 -8.25 867.3MHz, SF9BW125, 4/5CR
2026-05-06 03:08:04 11.625°C 80.5625% 3.33V v4 52.0948 / 5.10278 21173 ttn.v3 3.428km -108 -2.75 868.1MHz, SF9BW125, 4/5CR
2026-05-06 02:52:10 11.625°C 80.375% 3.33V v4 52.0948 / 5.10278 21172 ttn.v3 3.428km -110 -0.75 867.9MHz, SF9BW125, 4/5CR
2026-05-06 02:20:22 11.625°C 80.75% 3.34V v4 52.0948 / 5.10278 21170 ttn.v3 3.428km -107 -11 867.7MHz, SF9BW125, 4/5CR
2026-05-06 01:32:40 11.5625°C 80.375% 3.33V v4 52.0948 / 5.10278 21167 ttn.v3 3.428km -109 -10 868.1MHz, SF9BW125, 4/5CR
2026-05-06 00:44:58 11.5625°C 79.8125% 3.33V v4 52.0948 / 5.10278 21164 ttn.v3 3.428km -102 -9.75 867.1MHz, SF9BW125, 4/5CR
2026-05-06 00:13:10 11.3125°C 78.5% 3.34V v4 52.0948 / 5.10278 21162 ttn.v3 3.428km -107 -2.75 867.9MHz, SF9BW125, 4/5CR
2026-05-05 23:57:16 11.125°C 78.125% 3.33V v4 52.0948 / 5.10278 21161 ttn.v3 3.428km -102 -7 868.1MHz, SF9BW125, 4/5CR
2026-05-05 23:41:22 11.25°C 76.75% 3.33V v4 52.0948 / 5.10278 21160 ttn.v3 3.428km -105 -11 867.7MHz, SF9BW125, 4/5CR
2026-05-05 22:21:52 12.875°C 74.25% 3.34V v4 52.0948 / 5.10278 21155 ttn.v3 3.428km -109 -2.75 868.1MHz, SF9BW125, 4/5CR
2026-05-05 22:05:57 12.9375°C 74.75% 3.33V v4 52.0948 / 5.10278 21154 ttn.v3 3.428km -105 -10.75 867.1MHz, SF9BW125, 4/5CR
2026-05-05 21:50:03 13.0625°C 74.5% 3.33V v4 52.0948 / 5.10278 21153 ttn.v3 3.428km -95 -10.25 868.5MHz, SF9BW125, 4/5CR
2026-05-05 21:34:08 13.1875°C 74.25% 3.34V v4 52.0948 / 5.10278 21152 ttn.v3 3.428km -109 -1.5 867.9MHz, SF9BW125, 4/5CR
2026-05-05 19:10:51 17.9375°C 63.375% 3.33V v4 52.0948 / 5.10278 21143 ttn.v3 3.428km -105 -5.25 868.1MHz, SF9BW125, 4/5CR
2026-05-05 18:54:55 18.5°C 62.5625% 3.33V v4 52.0948 / 5.10278 21142 ttn.v3 3.428km -107 0.75 867.9MHz, SF9BW125, 4/5CR
2026-05-05 18:23:01 20.875°C 57.9375% 3.33V v4 52.0948 / 5.10278 21140 ttn.v3 3.428km -107 -3.75 867.7MHz, SF9BW125, 4/5CR
2026-05-05 17:35:09 23°C 57.6875% 3.33V v4 52.0948 / 5.10278 21137 ttn.v3 3.428km -96 -5.75 868.1MHz, SF9BW125, 4/5CR
2026-05-05 16:15:24 21.1875°C 63.4375% 3.33V v4 52.0948 / 5.10278 21132 ttn.v3 3.428km -107 0 867.9MHz, SF9BW125, 4/5CR
2026-05-05 15:59:26 21.1875°C 68.25% 3.33V v4 52.0948 / 5.10278 21131 ttn.v3 3.428km -97 -7.5 868.1MHz, SF9BW125, 4/5CR
2026-05-05 15:43:29 20.25°C 72.6875% 3.33V v4 52.0948 / 5.10278 21130 ttn.v3 3.428km -107 -3.5 867.7MHz, SF9BW125, 4/5CR
2026-05-05 14:39:44 17.9375°C 82.5% 3.33V v4 52.0948 / 5.10278 21126 ttn.v3 3.428km -110 -10 867.3MHz, SF9BW125, 4/5CR
2026-05-05 14:23:48 17.125°C 84.4375% 3.33V v4 52.0948 / 5.10278 21125 ttn.v3 3.428km -104 -7.5 868.1MHz, SF9BW125, 4/5CR
2026-05-05 14:07:52 16.75°C 84.5% 3.33V v4 52.0948 / 5.10278 21124 ttn.v3 3.428km -105 -3.5 867.1MHz, SF9BW125, 4/5CR
2026-05-05 13:36:02 15.5625°C 87.1875% 3.33V v4 52.0948 / 5.10278 21122 ttn.v3 3.428km -107 -0.5 867.9MHz, SF9BW125, 4/5CR
- -120 -12.5 867.9MHz, SF9BW125, 4/5CR
2026-05-05 13:04:12 15°C 87.875% 3.33V v4 52.0948 / 5.10278 21120 ttn.v3 3.428km -109 -4.75 867.7MHz, SF9BW125, 4/5CR
2026-05-05 12:48:17 15.0625°C 87.125% 3.33V v4 52.0948 / 5.10278 21119 ttn.v3 3.428km -103 -11.5 868.1MHz, SF9BW125, 4/5CR
2026-05-05 11:28:43 13.6875°C 90.4375% 3.33V v4 52.0948 / 5.10278 21114 ttn.v3 3.428km -105 -7.5 867.1MHz, SF9BW125, 4/5CR
2026-05-05 11:14:12 13.5625°C 89.5625% 3.33V v4 52.0948 / 5.10278 21113 ttn.v3 3.428km -103 -4.5 868.1MHz, SF12BW125, 4/5CR
2026-05-05 10:56:59 13.5°C 90.625% 3.34V v4 52.0949 / 5.10278 21112 ttn.v3 3.428km -107 -1 867.9MHz, SF9BW125, 4/5CR
2026-05-05 10:25:10 13.4375°C 90.25% 3.33V v4 52.0949 / 5.10278 21110 ttn.v3 3.428km -107 -4.75 867.7MHz, SF9BW125, 4/5CR
2026-05-05 08:17:56 11.5625°C 96.6875% 3.34V v4 52.0949 / 5.10278 21102 ttn.v3 3.428km -110 -0.25 867.9MHz, SF9BW125, 4/5CR
2026-05-05 08:02:02 11.4375°C 96.6875% 3.34V v4 52.0949 / 5.10278 21101 ttn.v3 3.428km -101 -4.25 868.1MHz, SF9BW125, 4/5CR
- -122 -10.75 868.1MHz, SF9BW125, 4/5CR
2026-05-05 07:46:08 11.375°C 96.1875% 3.34V v4 52.0949 / 5.10278 21100 ttn.v3 3.428km -102 -5.5 867.7MHz, SF9BW125, 4/5CR
2026-05-05 06:10:44 11.625°C 96.125% 3.34V v4 52.0949 / 5.10278 21094 ttn.v3 3.428km -105 -9.75 867.1MHz, SF9BW125, 4/5CR
2026-05-05 05:38:56 11.875°C 95.75% 3.34V v4 52.0949 / 5.10278 21092 ttn.v3 3.428km -110 -1.75 867.9MHz, SF9BW125, 4/5CR
2026-05-05 04:51:14 12.125°C 95.5% 3.33V v4 52.0949 / 5.10278 21089 ttn.v3 3.428km -107 -9 868.1MHz, SF9BW125, 4/5CR
2026-05-05 04:19:26 12.3125°C 95.625% 3.33V v4 52.0949 / 5.10278 21087 ttn.v3 3.428km -97 -13.25 868.5MHz, SF9BW125, 4/5CR
2026-05-05 03:31:43 12.625°C 94.25% 3.33V v4 52.0949 / 5.10278 21084 ttn.v3 3.428km -110 -8.25 867.1MHz, SF9BW125, 4/5CR
2026-05-05 03:15:48 12.8125°C 93.9375% 3.34V v4 52.0949 / 5.10278 21083 ttn.v3 3.428km -101 -5.5 868.1MHz, SF9BW125, 4/5CR
2026-05-05 02:59:54 12.9375°C 95.125% 3.33V v4 52.0949 / 5.10278 21082 ttn.v3 3.428km -99 -11 867.9MHz, SF9BW125, 4/5CR
2026-05-05 01:08:32 13.75°C 96.3125% 3.33V v4 52.0949 / 5.10278 21075 ttn.v3 3.428km -97 -14 868.5MHz, SF9BW125, 4/5CR
2026-05-05 00:52:37 13.875°C 96.375% 3.33V v4 52.0949 / 5.10278 21074 ttn.v3 3.428km -105 -10 867.1MHz, SF9BW125, 4/5CR
2026-05-05 00:20:48 14.125°C 95.9375% 3.33V v4 52.0949 / 5.10278 21072 ttn.v3 3.428km -109 -0.75 867.9MHz, SF9BW125, 4/5CR
2026-05-05 00:04:53 14.1875°C 97.75% 3.33V v4 52.0949 / 5.10278 21071 ttn.v3 3.428km -101 -3.25 868.1MHz, SF9BW125, 4/5CR
2026-05-04 23:48:58 14.3125°C 95.375% 3.33V v4 52.0949 / 5.10278 21070 ttn.v3 3.428km -107 -6.5 867.7MHz, SF9BW125, 4/5CR
2026-05-04 23:33:03 14.3125°C 95.9375% 3.33V v4 52.0949 / 5.10278 21069 ttn.v3 3.428km -97 -13.25 868.5MHz, SF9BW125, 4/5CR
2026-05-04 21:41:38 15.25°C 95.25% 3.33V v4 52.0949 / 5.10278 21062 ttn.v3 3.428km -105 -4 867.9MHz, SF9BW125, 4/5CR
2026-05-04 21:09:47 16.0625°C 93.75% 3.33V v4 52.0949 / 5.10278 21060 ttn.v3 3.428km -102 -6.75 867.7MHz, SF9BW125, 4/5CR
2026-05-04 20:53:52 16.3125°C 93.25% 3.33V v4 52.0949 / 5.10278 21059 ttn.v3 3.428km -104 -7.5 868.1MHz, SF9BW125, 4/5CR
2026-05-04 19:34:12 18.625°C 89.375% 3.33V v4 52.0949 / 5.10278 21054 ttn.v3 3.428km -104 -10.25 867.1MHz, SF9BW125, 4/5CR
2026-05-04 19:02:19 19.375°C 91% 3.33V v4 52.0949 / 5.10278 21052 ttn.v3 3.428km -102 -4 867.9MHz, SF9BW125, 4/5CR
2026-05-04 17:42:34 21.25°C 87.5% 3.33V v4 52.0949 / 5.10278 21047 ttn.v3 3.428km -107 -7 868.1MHz, SF9BW125, 4/5CR
2026-05-04 16:54:42 21.125°C 87.8125% 3.33V v4 52.0949 / 5.10278 21044 ttn.v3 3.428km -108 -3.75 867.1MHz, SF9BW125, 4/5CR
2026-05-04 16:22:47 20.1875°C 95% 3.33V v4 52.0949 / 5.10278 21042 ttn.v3 3.428km -109 -1 867.9MHz, SF9BW125, 4/5CR
2026-05-04 15:50:54 19.9375°C 88.625% 3.33V v4 52.0949 / 5.10278 21040 ttn.v3 3.428km -104 -8.25 867.7MHz, SF9BW125, 4/5CR
2026-05-04 14:31:09 20.25°C 94.1875% 3.33V v4 52.0949 / 5.10278 21035 ttn.v3 3.428km -101 -9.5 868.1MHz, SF9BW125, 4/5CR
2026-05-04 14:15:12 20.125°C 93.9375% 3.33V v4 52.0949 / 5.10278 21034 ttn.v3 3.428km -108 -5.25 867.1MHz, SF9BW125, 4/5CR
2026-05-04 13:11:25 18.8125°C 104.25% 3.33V v4 52.0949 / 5.10278 21030 ttn.v3 3.428km -107 -8.25 867.7MHz, SF9BW125, 4/5CR
2026-05-04 12:07:40 17.5625°C -0.1875% 3.33V v4 52.0949 / 5.10278 21026 ttn.v3 3.428km -104 -8 867.3MHz, SF9BW125, 4/5CR
2026-05-04 11:19:54 16°C 0.8125% 3.33V v4 52.0949 / 5.10278 21023 ttn.v3 3.428km -107 -7.25 868.1MHz, SF9BW125, 4/5CR
2026-05-04 11:03:58 15.875°C -2% 3.33V v4 52.0949 / 5.10278 21022 ttn.v3 3.428km -107 -2 867.9MHz, SF9BW125, 4/5CR
2026-05-04 10:32:07 15.875°C 18.8125% 3.33V v4 52.0949 / 5.10278 21020 ttn.v3 3.428km -105 -10.75 867.7MHz, SF9BW125, 4/5CR
2026-05-04 09:45:41 15.6875°C 27.125% 3.33V v4 52.0949 / 5.10278 21017 ttn.v3 3.428km -104 -9.75 868.1MHz, SF12BW125, 4/5CR
- -116 -16 868.1MHz, SF12BW125, 4/5CR
2026-05-04 08:24:51 14.6875°C 27.8125% 3.33V v4 52.0948 / 5.10275 21012 ttn.v3 3.43km -105 -5.25 867.9MHz, SF9BW125, 4/5CR
- -122 -14.75 867.9MHz, SF9BW125, 4/5CR
2026-05-04 08:08:56 14.3125°C 27.5% 3.34V v4 52.0948 / 5.10275 21011 ttn.v3 3.43km -108 -6.5 868.1MHz, SF9BW125, 4/5CR
2026-05-04 07:53:02 14.0625°C 26.4375% 3.34V v4 52.0948 / 5.10275 21010 ttn.v3 3.43km -107 -6.75 867.7MHz, SF9BW125, 4/5CR
2026-05-04 05:13:57 12.5625°C 21.5% 3.34V v4 52.0948 / 5.10275 21000 ttn.v3 3.43km -106 -5.25 867.7MHz, SF9BW125, 4/5CR
2026-05-04 04:58:02 12.5°C 22% 3.34V v4 52.0948 / 5.10275 20999 ttn.v3 3.43km -102 -11.25 868.1MHz, SF9BW125, 4/5CR
2026-05-04 04:10:20 12.4375°C 18.1875% 3.34V v4 52.0948 / 5.10275 20996 ttn.v3 3.43km -111 -6 867.3MHz, SF9BW125, 4/5CR
2026-05-04 03:38:31 12.8125°C 19% 3.34V v4 52.0948 / 5.10275 20994 ttn.v3 3.43km -108 -8.25 867.1MHz, SF9BW125, 4/5CR
2026-05-04 03:22:36 12.875°C 15.25% 3.33V v4 52.0948 / 5.10275 20993 ttn.v3 3.43km -104 -9.25 868.1MHz, SF9BW125, 4/5CR
2026-05-04 03:06:42 12.875°C 11.9375% 3.33V v4 52.0948 / 5.10275 20992 ttn.v3 3.43km -99 -8.25 867.9MHz, SF9BW125, 4/5CR
2026-05-04 00:59:26 13.4375°C -0.1875% 3.33V v4 52.0948 / 5.10275 20984 ttn.v3 3.43km -107 -7 867.1MHz, SF9BW125, 4/5CR
2026-05-04 00:27:37 13.9375°C -2.375% 3.33V v4 52.0948 / 5.10275 20982 ttn.v3 3.43km -109 -0.5 867.9MHz, SF9BW125, 4/5CR
2026-05-04 00:11:42 13.9375°C -3.75% 3.33V v4 52.0948 / 5.10275 20981 ttn.v3 3.43km -105 -8 868.1MHz, SF9BW125, 4/5CR
2026-05-03 22:36:12 15.0625°C -3.1875% 3.33V v4 52.0948 / 5.10275 20975 ttn.v3 3.43km -109 -6.25 868.1MHz, SF9BW125, 4/5CR
2026-05-03 22:20:17 15.1875°C -1.875% 3.33V v4 52.0948 / 5.10275 20974 ttn.v3 - -125 -12.25 867.1MHz, SF9BW125, 4/5CR
2026-05-03 21:48:26 15.375°C -4.875% 3.33V v4 52.0948 / 5.10275 20972 ttn.v3 3.43km -110 0.25 867.9MHz, SF9BW125, 4/5CR
2026-05-03 21:16:36 15.6875°C -3.375% 3.33V v4 52.0948 / 5.10275 20970 ttn.v3 3.43km -105 -9.25 867.7MHz, SF9BW125, 4/5CR
2026-05-03 19:25:07 16.6875°C 110.938% 3.33V v4 52.0948 / 5.10275 20963 ttn.v3 3.43km -107 -8.25 868.1MHz, SF9BW125, 4/5CR
2026-05-03 19:09:12 16.4375°C 110.312% 3.33V v4 52.0948 / 5.10275 20962 ttn.v3 3.43km -104 -4.25 867.9MHz, SF9BW125, 4/5CR
2026-05-03 18:37:20 17.0625°C 107.188% 3.33V v4 52.0948 / 5.10275 20960 ttn.v3 3.43km -103 -9.5 867.7MHz, SF9BW125, 4/5CR
2026-05-03 17:49:34 15.3125°C -5.375% 3.33V v4 52.0948 / 5.10275 20957 ttn.v3 3.43km -107 -9.5 868.1MHz, SF9BW125, 4/5CR
2026-05-03 17:33:39 15.125°C 117.875% 3.33V v4 52.0948 / 5.10275 20956 ttn.v3 3.43km -107 -7.25 867.3MHz, SF9BW125, 4/5CR
2026-05-03 17:01:48 16.3125°C 99% 3.33V v4 52.0948 / 5.10275 20954 ttn.v3 3.43km -107 -11.25 867.1MHz, SF9BW125, 4/5CR
2026-05-03 16:29:57 17.3125°C 104.812% 3.33V v4 52.0948 / 5.10275 20952 ttn.v3 3.43km -105 -7.25 867.9MHz, SF9BW125, 4/5CR
2026-05-03 15:58:05 17.5°C 108.688% 3.33V v4 52.0948 / 5.10275 20950 ttn.v3 3.43km -107 -3.75 867.7MHz, SF9BW125, 4/5CR
- -127 -11.25 867.7MHz, SF9BW125, 4/5CR
2026-05-03 14:54:22 16.6875°C 112.25% 3.33V v4 52.0948 / 5.10275 20946 ttn.v3 3.43km -103 -8.25 867.3MHz, SF9BW125, 4/5CR
2026-05-03 14:38:26 16.625°C 109.062% 3.33V v4 52.0948 / 5.10275 20945 ttn.v3 3.43km -107 -5 868.1MHz, SF9BW125, 4/5CR
2026-05-03 14:22:31 16.75°C 108% 3.33V v4 52.0948 / 5.10275 20944 ttn.v3 3.43km -109 -5 867.1MHz, SF9BW125, 4/5CR
2026-05-03 13:18:48 17.5°C 106.562% 3.33V v4 52.0948 / 5.10275 20940 ttn.v3 3.43km -101 -5.75 867.7MHz, SF9BW125, 4/5CR
2026-05-03 11:27:14 18.375°C 96.25% 3.33V v4 52.0948 / 5.10275 20933 ttn.v3 3.43km -103 -4.75 868.1MHz, SF9BW125, 4/5CR
- -122 -7.25 868.1MHz, SF9BW125, 4/5CR
2026-05-03 11:11:18 18.1875°C 91.9375% 3.33V v4 52.0948 / 5.10275 20932 ttn.v3 3.43km -110 -1.75 867.9MHz, SF9BW125, 4/5CR
- -120 -7.5 867.9MHz, SF9BW125, 4/5CR
2026-05-03 10:39:26 18°C 95.8125% 3.33V v4 52.0948 / 5.10275 20930 ttn.v3 3.43km -105 -5.75 867.7MHz, SF9BW125, 4/5CR
2026-05-03 09:51:38 17.5625°C 102.75% 3.33V v4 52.0948 / 5.10275 20927 ttn.v3 3.43km -104 -5 868.1MHz, SF9BW125, 4/5CR
2026-05-03 09:03:51 16.5°C 104.5% 3.33V v4 52.0948 / 5.10275 20924 ttn.v3 3.43km -109 -3.5 867.1MHz, SF9BW125, 4/5CR
2026-05-03 08:32:00 16.0625°C 115.188% 3.33V v4 52.0948 / 5.10275 20922 ttn.v3 3.43km -109 -0.25 867.9MHz, SF9BW125, 4/5CR
2026-05-03 08:17:44 15.5625°C 111.75% 3.33V v4 52.0948 / 5.10275 20921 ttn.v3 3.43km -104 -6.25 868.1MHz, SF12BW125, 4/5CR
- -123 -14.75 868.1MHz, SF12BW125, 4/5CR
2026-05-03 06:24:45 14.9375°C 5.125% 3.33V v4 52.0949 / 5.10278 20914 ttn.v3 3.428km -105 -6.25 867.1MHz, SF9BW125, 4/5CR
2026-05-03 05:52:54 14.875°C -1.25% 3.33V v4 52.0949 / 5.10278 20912 ttn.v3 3.428km -110 -4.5 867.9MHz, SF9BW125, 4/5CR
- -123 -11 867.9MHz, SF9BW125, 4/5CR
2026-05-03 05:21:04 14.9375°C 1.25% 3.33V v4 52.0949 / 5.10278 20910 ttn.v3 3.428km -105 -5 867.7MHz, SF9BW125, 4/5CR
2026-05-03 04:33:19 14.8125°C -1.75% 3.34V v4 52.0949 / 5.10278 20907 ttn.v3 3.428km -95 -14.25 868.5MHz, SF9BW125, 4/5CR
2026-05-03 03:45:34 14.75°C 5.1875% 3.33V v4 52.0949 / 5.10278 20904 ttn.v3 3.428km -110 -10.75 867.1MHz, SF9BW125, 4/5CR
2026-05-03 03:29:39 14.75°C 6.125% 3.33V v4 52.0949 / 5.10278 20903 ttn.v3 3.428km -111 -11.25 868.1MHz, SF9BW125, 4/5CR
2026-05-03 03:13:44 14.8125°C 7.5% 3.33V v4 52.0949 / 5.10278 20902 ttn.v3 3.428km -105 -3 867.9MHz, SF9BW125, 4/5CR
2026-05-03 02:41:53 14.9375°C 5% 3.33V v4 52.0949 / 5.10278 20900 ttn.v3 3.428km -104 -8.25 867.7MHz, SF9BW125, 4/5CR
2026-05-03 01:54:08 15.0625°C 3.5625% 3.33V v4 52.0949 / 5.10278 20897 ttn.v3 3.428km -102 -11.75 868.1MHz, SF9BW125, 4/5CR

Message count: 200
Node count: 1

Messages per node

Number of messages in list aboveNodes
200

Statistics per gateway

GatewayNumber of messagesNumber of nodesNodes
1971 (3.428km)
131
51

Filter by dataset